Time;durP1;ratioP1;P1;durP2;ratioP2;P2;SDS_P1;SDS_P2;PMS_P1;PMS_P2;Temp;Humidity;BMP_temperature;BMP_pressure;BME280_temperature;BME280_humidity;BME280_pressure;Samples;Min_cycle;Max_cycle;Signal;HPM_P1;HPM_P2
2023/01/02 00:01:42;;;;;;;11.53;6.87;;;11.50;99.90;;;11.55;63.76;100744.16;5109396;28;20228;-70
2023/01/02 00:04:10;;;;;;;13.60;7.00;;;11.50;99.90;;;11.57;63.95;100751.91;5107437;28;20197;-70
2023/01/02 00:06:39;;;;;;;12.70;7.47;;;11.50;99.90;;;11.55;63.92;100757.06;5108636;28;20256;-71
2023/01/02 00:09:09;;;;;;;13.60;7.30;;;11.50;99.90;;;11.55;63.93;100751.91;5102177;28;20201;-70
2023/01/02 00:11:37;;;;;;;14.97;7.07;;;11.50;99.90;;;11.55;63.60;100749.31;5103824;28;20212;-68
2023/01/02 00:14:06;;;;;;;12.13;7.07;;;11.50;99.90;;;11.55;63.64;100744.16;5108010;28;20204;-71
2023/01/02 00:16:35;;;;;;;15.73;7.73;;;11.50;99.90;;;11.56;63.85;100747.59;5098207;28;20208;-70
2023/01/02 00:19:07;;;;;;;12.27;7.67;;;11.50;99.90;;;11.55;63.72;100732.97;5104830;28;20240;-71
2023/01/02 00:21:35;;;;;;;12.17;7.10;;;11.50;99.90;;;11.55;63.86;100726.09;5108619;28;20227;-70
2023/01/02 00:24:04;;;;;;;13.17;7.40;;;11.50;99.90;;;11.54;63.84;100737.28;5108885;28;20611;-69
2023/01/02 00:26:33;;;;;;;10.43;7.60;;;11.50;99.90;;;11.51;63.93;100742.47;5107910;28;20200;-70
2023/01/02 00:29:02;;;;;;;11.77;7.40;;;11.50;99.90;;;11.50;63.95;100742.47;5109616;28;20208;-70
2023/01/02 00:31:30;;;;;;;10.63;6.73;;;11.50;99.90;;;11.50;63.82;100745.91;5105291;28;20218;-71
2023/01/02 00:33:59;;;;;;;11.63;6.90;;;11.50;99.90;;;11.51;63.66;100741.59;5106737;28;20199;-70
2023/01/02 00:36:28;;;;;;;12.90;7.47;;;11.50;99.90;;;11.51;63.85;100742.47;5108752;28;20230;-69
2023/01/02 00:38:57;;;;;;;15.13;7.73;;;11.50;99.90;;;11.50;63.60;100743.34;5108963;28;20222;-69
2023/01/02 00:41:26;;;;;;;13.40;7.33;;;11.50;99.90;;;11.52;63.60;100740.72;5109599;28;20268;-69
2023/01/02 00:43:54;;;;;;;13.03;7.20;;;11.50;99.90;;;11.53;63.81;100740.75;5108726;28;20253;-69
2023/01/02 00:46:23;;;;;;;10.70;6.93;;;11.50;99.90;;;11.54;63.78;100747.63;5107966;28;20212;-71
2023/01/02 00:48:51;;;;;;;12.47;7.00;;;11.50;99.90;;;11.56;63.78;100752.75;5109319;28;20598;-68
2023/01/02 00:51:20;;;;;;;14.20;7.53;;;11.50;99.90;;;11.57;63.77;100755.34;5106824;28;20200;-70
2023/01/02 00:53:50;;;;;;;15.93;7.80;;;11.60;99.90;;;11.59;63.57;100755.34;5097098;28;20199;-68
2023/01/02 00:56:18;;;;;;;11.27;7.47;;;11.60;99.90;;;11.59;64.04;100755.34;5111099;28;20239;-70
2023/01/02 00:58:47;;;;;;;11.63;7.17;;;11.60;99.90;;;11.61;63.52;100757.06;5111522;28;20632;-70
2023/01/02 01:01:15;;;;;;;12.47;7.80;;;11.60;99.90;;;11.64;63.26;100755.34;5106049;28;20242;-69
2023/01/02 01:03:45;;;;;;;13.53;7.83;;;11.60;99.90;;;11.61;63.09;100757.06;5107641;28;20200;-70
2023/01/02 01:06:14;;;;;;;10.83;7.20;;;11.60;99.90;;;11.63;63.55;100761.34;5110425;28;20208;-70
2023/01/02 01:08:42;;;;;;;13.50;8.30;;;11.60;99.90;;;11.64;63.37;100755.34;5112544;28;20211;-71
2023/01/02 01:11:15;;;;;;;15.17;7.93;;;11.60;99.90;;;11.63;63.25;100764.78;5110550;28;20215;-71
2023/01/02 01:13:44;;;;;;;11.80;7.27;;;11.60;99.90;;;11.63;63.21;100756.19;5112443;28;20196;-70
2023/01/02 01:16:15;;;;;;;14.20;7.70;;;11.60;99.90;;;11.63;63.37;100753.59;5111369;28;20208;-70
2023/01/02 01:18:45;;;;;;;14.30;7.60;;;11.60;99.90;;;11.61;63.20;100749.31;5112643;28;20679;-71
2023/01/02 01:21:16;;;;;;;10.63;6.73;;;11.60;99.90;;;11.60;63.43;100754.50;5112125;28;20257;-70
2023/01/02 01:23:49;;;;;;;11.97;7.30;;;11.60;99.90;;;11.60;63.55;100750.19;5112253;28;20672;-70
2023/01/02 01:26:20;;;;;;;11.63;7.33;;;11.60;99.90;;;11.59;63.22;100753.59;5110794;28;20199;-70
2023/01/02 01:28:48;;;;;;;11.83;7.40;;;11.60;99.90;;;11.60;63.57;100745.03;5111793;28;20264;-71
2023/01/02 01:31:17;;;;;;;12.37;7.70;;;11.50;99.90;;;11.58;63.67;100738.13;5109590;28;20204;-72
2023/01/02 01:33:46;;;;;;;13.47;7.87;;;11.50;99.90;;;11.57;63.55;100739.00;5110144;28;20727;-70
2023/01/02 01:36:18;;;;;;;15.20;7.60;;;11.50;99.90;;;11.57;63.25;100742.44;5112206;28;20241;-72
2023/01/02 01:38:47;;;;;;;12.27;6.93;;;11.50;99.90;;;11.55;63.54;100738.16;5111755;28;20236;-71
2023/01/02 01:41:20;;;;;;;12.70;7.37;;;11.50;99.90;;;11.55;64.02;100728.69;5110987;28;20200;-72
2023/01/02 01:43:51;;;;;;;12.70;7.70;;;11.50;99.90;;;11.57;63.45;100728.69;5106540;28;20599;-71
2023/01/02 01:46:26;;;;;;;13.07;7.50;;;11.50;99.90;;;11.57;63.42;100726.97;5110128;28;20196;-72
2023/01/02 01:49:04;;;;;;;13.63;7.47;;;11.50;99.90;;;11.57;63.46;100723.53;5103176;28;20479;-70
2023/01/02 01:51:37;;;;;;;11.23;7.57;;;11.50;99.90;;;11.58;63.22;100714.91;5108922;28;20203;-69
2023/01/02 01:54:10;;;;;;;12.10;7.00;;;11.50;99.90;;;11.59;63.16;100707.16;5112313;28;20681;-69
2023/01/02 01:56:47;;;;;;;11.63;7.30;;;11.50;99.90;;;11.58;63.29;100710.59;5112209;28;20203;-70
2023/01/02 01:59:16;;;;;;;13.73;7.50;;;11.60;99.90;;;11.58;63.31;100702.84;5107742;28;20203;-70
2023/01/02 02:01:46;;;;;;;13.90;8.03;;;11.50;99.90;;;11.58;63.46;100691.69;5111267;28;20250;-71
2023/01/02 02:04:16;;;;;;;12.50;7.40;;;11.50;99.90;;;11.56;63.16;100694.28;5099872;28;20207;-70
2023/01/02 02:06:45;;;;;;;11.90;7.50;;;11.50;99.90;;;11.57;63.30;100685.66;5109533;28;20293;-70
2023/01/02 02:09:20;;;;;;;11.13;7.70;;;11.50;99.90;;;11.57;63.02;100698.56;5112017;28;20203;-69
2023/01/02 02:11:50;;;;;;;9.90;7.63;;;11.50;99.90;;;11.57;63.33;100697.72;5107196;28;20704;-69
2023/01/02 02:14:19;;;;;;;13.60;6.97;;;11.50;99.90;;;11.57;63.27;100695.13;5111809;28;20265;-70
2023/01/02 02:16:54;;;;;;;13.90;8.27;;;11.50;99.90;;;11.55;63.07;100687.38;5105956;28;20249;-70
2023/01/02 02:20:06;;;;;;;12.93;7.40;;;11.50;99.90;;;11.53;63.39;100693.44;5110900;28;20223;-69
2023/01/02 02:23:29;;;;;;;12.70;7.50;;;11.50;99.90;;;11.51;63.58;100703.75;5108191;28;20219;-70
2023/01/02 02:26:57;;;;;;;12.83;7.13;;;11.50;99.90;;;11.52;63.63;100700.28;5107323;28;20273;-70
2023/01/02 02:30:10;;;;;;;11.80;7.53;;;11.50;99.90;;;11.52;63.54;100699.44;5079595;28;20234;-71
2023/01/02 02:33:11;;;;;;;13.67;7.77;;;11.50;99.90;;;11.51;63.24;100690.00;5110901;28;20207;-69
2023/01/02 02:35:53;;;;;;;11.93;7.23;;;11.50;99.90;;;11.50;63.54;100688.28;5103435;28;20204;-70
2023/01/02 02:38:43;;;;;;;11.83;7.30;;;11.50;99.90;;;11.50;63.74;100707.19;5098398;28;20200;-69
2023/01/02 02:41:26;;;;;;;13.83;7.00;;;11.50;99.90;;;11.49;63.59;100689.16;5105038;28;20224;-70
2023/01/02 02:44:06;;;;;;;11.47;7.33;;;11.50;99.90;;;11.47;63.74;100691.72;5109191;28;20695;-69
2023/01/02 02:46:46;;;;;;;12.60;7.80;;;11.40;99.90;;;11.48;63.41;100706.34;5110078;28;20203;-71
2023/01/02 02:49:28;;;;;;;12.93;6.97;;;11.40;99.90;;;11.46;63.26;100702.06;5102787;28;20224;-68
2023/01/02 02:52:02;;;;;;;12.20;6.70;;;11.40;99.90;;;11.46;63.71;100709.81;5110103;28;20290;-70
2023/01/02 02:54:37;;;;;;;12.93;7.27;;;11.40;99.90;;;11.46;63.61;100715.81;5108710;28;20246;-69
2023/01/02 02:57:09;;;;;;;10.27;6.73;;;11.40;99.90;;;11.43;63.31;100708.09;5110583;28;20199;-68
2023/01/02 02:59:39;;;;;;;11.83;7.37;;;11.40;99.90;;;11.46;63.66;100709.81;5109285;27;20227;-70
2023/01/02 03:02:10;;;;;;;12.27;7.53;;;11.40;99.90;;;11.46;63.63;100713.25;5108706;28;20207;-70
2023/01/02 03:04:38;;;;;;;11.13;6.90;;;11.40;99.90;;;11.49;63.47;100713.25;5109760;28;20630;-70
2023/01/02 03:07:20;;;;;;;12.73;7.80;;;11.40;99.90;;;11.50;63.66;100722.69;5108576;28;20702;-70
2023/01/02 03:10:03;;;;;;;12.07;7.37;;;11.50;99.90;;;11.52;63.53;100702.88;5110695;28;20207;-70
2023/01/02 03:12:43;;;;;;;15.40;7.97;;;11.50;99.90;;;11.54;63.47;100701.16;5102775;28;20699;-70
2023/01/02 03:15:24;;;;;;;12.67;7.87;;;11.50;99.90;;;11.52;63.39;100687.38;5108404;28;20207;-70
2023/01/02 03:18:06;;;;;;;11.83;7.30;;;11.50;99.90;;;11.50;63.17;100696.03;5109402;28;20289;-69
2023/01/02 03:20:41;;;;;;;11.73;7.60;;;11.50;99.90;;;11.51;62.73;100714.06;5107808;28;20333;-70
2023/01/02 03:23:19;;;;;;;12.37;7.30;;;11.50;99.90;;;11.51;63.11;100708.91;5097445;28;20215;-70
2023/01/02 03:25:48;;;;;;;11.27;7.30;;;11.50;99.90;;;11.54;63.46;100715.78;5110216;28;20549;-70
2023/01/02 03:28:22;;;;;;;16.73;8.13;;;11.50;99.90;;;11.52;63.65;100705.47;5110040;28;20216;-71
2023/01/02 03:30:57;;;;;;;11.80;7.90;;;11.50;99.90;;;11.53;63.61;100706.34;5108546;28;20603;-70
2023/01/02 03:33:32;;;;;;;9.67;7.37;;;11.50;99.90;;;11.51;63.43;100695.16;5108695;28;20195;-71
2023/01/02 03:36:06;;;;;;;14.47;7.27;;;11.50;99.90;;;11.52;63.16;100702.88;5109137;28;20202;-69
2023/01/02 03:38:40;;;;;;;13.80;7.93;;;11.50;99.90;;;11.50;63.53;100709.78;5109825;28;20674;-70
2023/01/02 03:41:16;;;;;;;12.63;7.50;;;11.50;99.90;;;11.49;63.40;100697.75;5109021;28;20613;-69
2023/01/02 03:43:48;;;;;;;10.43;7.07;;;11.50;99.90;;;11.48;63.24;100685.69;5109215;28;20247;-69
2023/01/02 03:46:32;;;;;;;11.00;6.87;;;11.50;99.90;;;11.47;63.53;100709.78;5108303;28;20207;-69
2023/01/02 03:49:08;;;;;;;11.33;7.07;;;11.40;99.90;;;11.44;63.70;100714.97;5108388;28;20615;-70
2023/01/02 03:51:36;;;;;;;11.60;6.90;;;11.40;99.90;;;11.41;63.20;100709.81;5108792;28;20409;-69
2023/01/02 03:54:05;;;;;;;12.93;7.40;;;11.40;99.90;;;11.41;63.53;100714.97;5108867;28;20631;-69
2023/01/02 03:56:47;;;;;;;10.90;7.43;;;11.40;99.90;;;11.39;63.74;100711.56;5109952;28;20204;-70
2023/01/02 03:59:26;;;;;;;13.00;7.70;;;11.40;99.90;;;11.39;63.90;100703.81;5107308;28;20477;-70
2023/01/02 04:02:01;;;;;;;14.47;8.20;;;11.40;99.90;;;11.39;63.37;100708.13;5108239;28;20241;-71
2023/01/02 04:04:41;;;;;;;11.07;7.53;;;11.30;99.90;;;11.38;63.52;100709.84;5105895;28;20228;-70
2023/01/02 04:07:26;;;;;;;14.30;7.93;;;11.40;99.90;;;11.38;63.73;100715.00;5103642;28;20676;-70
2023/01/02 04:09:56;;;;;;;11.43;7.03;;;11.30;99.90;;;11.36;63.41;100712.41;5109062;28;20200;-69
2023/01/02 04:12:27;;;;;;;12.23;7.07;;;11.30;99.90;;;11.36;63.79;100711.56;5109282;28;20203;-69
2023/01/02 04:14:59;;;;;;;13.43;8.47;;;11.30;99.90;;;11.35;64.00;100707.28;5107478;28;20200;-70
2023/01/02 04:17:31;;;;;;;12.00;7.60;;;11.30;99.90;;;11.37;64.05;100710.69;5108501;28;20211;-68
2023/01/02 04:20:05;;;;;;;13.03;7.50;;;11.30;99.90;;;11.36;63.68;100715.00;5109617;28;20212;-69
2023/01/02 04:22:42;;;;;;;11.77;7.63;;;11.30;99.90;;;11.39;63.64;100726.19;5108150;28;20653;-69
2023/01/02 04:25:14;;;;;;;12.30;7.23;;;11.30;99.90;;;11.37;63.81;100724.44;5108778;28;20617;-68
2023/01/02 04:27:51;;;;;;;12.87;7.03;;;11.30;99.90;;;11.36;63.87;100727.03;5110459;28;20208;-70
2023/01/02 04:30:19;;;;;;;11.67;8.00;;;11.30;99.90;;;11.36;63.53;100719.31;5101466;28;20534;-70
2023/01/02 04:32:49;;;;;;;13.43;7.23;;;11.30;99.90;;;11.36;63.81;100729.63;5107576;28;20628;-70
2023/01/02 04:35:23;;;;;;;13.47;6.83;;;11.30;99.90;;;11.33;64.35;100727.06;5108913;28;20239;-69
2023/01/02 04:37:51;;;;;;;12.63;7.90;;;11.30;99.90;;;11.33;64.28;100732.22;5107386;28;20222;-69
2023/01/02 04:40:24;;;;;;;12.30;7.83;;;11.30;99.90;;;11.34;64.33;100732.22;5108419;28;20294;-69
2023/01/02 04:42:53;;;;;;;14.30;7.67;;;11.30;99.90;;;11.33;64.45;100729.63;5109274;28;20208;-68
2023/01/02 04:45:21;;;;;;;14.33;7.53;;;11.30;99.90;;;11.34;64.96;100715.84;5108752;28;20277;-70
2023/01/02 04:47:51;;;;;;;13.27;7.47;;;11.30;99.90;;;11.32;64.45;100710.72;5107339;28;20212;-68
2023/01/02 04:50:21;;;;;;;13.70;7.50;;;11.30;99.90;;;11.31;64.87;100708.16;5107745;28;20253;-68
2023/01/02 04:52:50;;;;;;;13.43;7.67;;;11.30;99.90;;;11.32;64.93;100705.56;5107540;28;20204;-69
2023/01/02 04:55:18;;;;;;;9.07;6.47;;;11.30;99.90;;;11.30;64.91;100696.97;5108555;28;20249;-69
2023/01/02 04:57:46;;;;;;;12.80;7.50;;;11.30;99.90;;;11.28;65.07;100692.69;5110149;28;20289;-69
2023/01/02 05:00:16;;;;;;;10.83;7.87;;;11.20;99.90;;;11.27;64.52;100696.13;5107315;28;20223;-69
2023/01/02 05:02:44;;;;;;;11.53;7.03;;;11.30;99.90;;;11.24;64.95;100685.81;5103181;28;20243;-69
2023/01/02 05:05:13;;;;;;;11.10;7.53;;;11.20;99.90;;;11.22;64.59;100677.22;5108068;28;20224;-69
2023/01/02 05:07:43;;;;;;;13.23;6.80;;;11.20;99.90;;;11.21;64.78;100672.94;5109955;28;20203;-68
2023/01/02 05:10:12;;;;;;;11.50;6.60;;;11.20;99.90;;;11.21;64.65;100676.38;5108172;28;20200;-68
2023/01/02 05:12:40;;;;;;;10.50;6.97;;;11.20;99.90;;;11.22;64.58;100679.81;5107355;28;20353;-69
2023/01/02 05:15:10;;;;;;;10.13;6.80;;;11.20;99.90;;;11.21;64.78;100678.94;5109219;28;20709;-68
2023/01/02 05:17:41;;;;;;;10.10;7.10;;;11.20;99.90;;;11.22;64.47;100669.47;5106746;28;20277;-68
2023/01/02 05:20:12;;;;;;;11.77;7.00;;;11.20;99.90;;;11.23;64.88;100658.28;5109014;28;21792;-68
2023/01/02 05:25:32;;;;;;;10.87;7.30;;;11.20;99.90;;;11.22;64.67;100648.84;5107940;28;20248;-68
2023/01/02 05:28:02;;;;;;;11.97;7.13;;;11.20;99.90;;;11.21;64.58;100642.84;5109395;28;20352;-68
2023/01/02 05:30:31;;;;;;;11.20;7.17;;;11.20;99.90;;;11.21;64.37;100639.41;5106413;28;20516;-69
2023/01/02 05:32:59;;;;;;;10.97;7.20;;;11.20;99.90;;;11.19;65.02;100638.53;5108100;28;20257;-69
2023/01/02 05:35:27;;;;;;;11.97;6.73;;;11.20;99.90;;;11.19;64.65;100635.97;5108413;28;20211;-69
2023/01/02 05:38:02;;;;;;;15.77;6.63;;;11.20;99.90;;;11.12;64.62;100632.56;5109963;28;20204;-68
2023/01/02 05:40:30;;;;;;;10.07;6.70;;;11.20;99.90;;;11.11;65.00;100633.41;5108029;28;20257;-68
2023/01/02 05:42:59;;;;;;;9.73;6.63;;;11.10;99.90;;;11.09;65.02;100632.59;5109705;28;20318;-69
2023/01/02 05:45:27;;;;;;;12.43;7.57;;;11.10;99.90;;;11.07;64.75;100622.25;5110940;27;20251;-69
2023/01/02 05:47:56;;;;;;;11.00;7.10;;;11.10;99.90;;;11.07;65.06;100617.09;5113040;28;20708;-71
2023/01/02 05:50:24;;;;;;;11.43;7.10;;;11.10;99.90;;;11.06;64.84;100611.97;5111011;28;20211;-69
2023/01/02 05:52:52;;;;;;;10.97;6.50;;;11.10;99.90;;;11.06;65.13;100617.13;5112082;28;20204;-69
2023/01/02 05:55:22;;;;;;;11.57;6.93;;;11.10;99.90;;;11.05;65.37;100628.31;5110940;28;20245;-69
2023/01/02 05:57:55;;;;;;;12.73;7.23;;;11.10;99.90;;;10.99;65.45;100624.00;5113326;28;20245;-69
2023/01/02 06:00:23;;;;;;;13.33;7.03;;;11.00;99.90;;;10.98;65.21;100629.19;5109194;28;21584;-68
2023/01/02 06:02:52;;;;;;;10.40;7.07;;;10.90;99.90;;;10.90;65.73;100618.91;5111627;28;20652;-70
2023/01/02 06:05:20;;;;;;;11.40;6.83;;;10.90;99.90;;;10.85;65.31;100630.94;5112725;28;20255;-69
2023/01/02 06:07:48;;;;;;;10.37;6.90;;;10.80;99.90;;;10.78;66.00;100631.81;5111105;28;20253;-69
2023/01/02 06:10:17;;;;;;;10.57;6.67;;;10.80;99.90;;;10.74;66.25;100627.53;5112246;28;20204;-69
2023/01/02 06:12:47;;;;;;;8.47;6.33;;;10.70;99.90;;;10.70;66.14;100624.09;5113037;28;20243;-70
2023/01/02 06:15:16;;;;;;;13.33;6.33;;;10.70;99.90;;;10.64;65.75;100622.44;5109311;28;20212;-69
2023/01/02 06:17:44;;;;;;;9.80;6.33;;;10.60;99.90;;;10.60;65.65;100625.88;5110734;28;20242;-68
2023/01/02 06:20:12;;;;;;;10.67;6.37;;;10.60;99.90;;;10.55;66.55;100619.84;5111468;28;20211;-69
2023/01/02 06:22:41;;;;;;;8.67;6.10;;;10.60;99.90;;;10.51;66.99;100625.88;5112680;28;20648;-69
2023/01/02 06:25:09;;;;;;;12.53;6.67;;;10.50;99.90;;;10.47;66.31;100629.31;5111853;28;20713;-70
2023/01/02 06:27:38;;;;;;;10.50;6.40;;;10.50;99.90;;;10.42;66.27;100625.91;5108540;28;20211;-70
2023/01/02 06:30:10;;;;;;;11.60;6.47;;;10.40;99.90;;;10.39;66.66;100631.06;5108600;28;20208;-69
2023/01/02 06:32:38;;;;;;;9.23;6.47;;;10.40;99.90;;;10.34;67.24;100622.47;5104885;28;20335;-69
2023/01/02 06:35:08;;;;;;;11.40;6.90;;;10.40;99.90;;;10.33;66.84;100626.75;5110313;28;20636;-69
2023/01/02 06:37:36;;;;;;;11.10;6.73;;;10.30;99.90;;;10.28;67.24;100622.50;5110589;28;20245;-70
2023/01/02 06:40:06;;;;;;;11.60;6.37;;;10.30;99.90;;;10.22;67.20;100615.56;5108999;28;20204;-69
2023/01/02 06:42:34;;;;;;;10.37;5.83;;;10.20;99.90;;;10.20;68.03;100624.16;5112440;28;20204;-70
2023/01/02 06:45:04;;;;;;;12.53;6.50;;;10.20;99.90;;;10.17;68.09;100625.03;5108907;28;20815;-72
2023/01/02 06:47:34;;;;;;;8.70;5.80;;;10.20;99.90;;;10.12;67.56;100611.28;5111811;28;20657;-69
2023/01/02 06:50:02;;;;;;;12.40;6.70;;;10.10;99.90;;;10.07;67.63;100603.56;5107226;28;20270;-69
2023/01/02 06:52:31;;;;;;;9.53;6.27;;;10.10;99.90;;;10.06;67.83;100604.44;5110365;28;20265;-71
2023/01/02 06:55:00;;;;;;;11.07;6.10;;;10.10;99.90;;;10.04;68.38;100607.88;5112083;28;20257;-70
2023/01/02 06:57:30;;;;;;;9.33;5.93;;;10.00;99.90;;;9.99;67.93;100615.59;5107729;28;20204;-71
2023/01/02 06:59:58;;;;;;;11.37;6.60;;;10.00;99.90;;;9.97;68.26;100622.44;5108561;28;20212;-73
2023/01/02 07:02:27;;;;;;;13.67;6.87;;;10.00;99.90;;;9.94;68.00;100635.31;5110335;28;20229;-69
2023/01/02 07:04:57;;;;;;;10.23;6.63;;;9.90;99.90;;;9.90;67.95;100623.31;5105448;28;20234;-70
2023/01/02 07:07:25;;;;;;;9.83;6.50;;;9.90;99.90;;;9.85;68.64;100620.72;5110664;28;20207;-71
2023/01/02 07:09:53;;;;;;;9.97;6.17;;;9.90;99.90;;;9.84;68.52;100620.75;5107549;28;20219;-70
2023/01/02 07:12:22;;;;;;;9.30;6.80;;;9.80;99.90;;;9.79;68.27;100623.28;5109150;28;20253;-70
2023/01/02 07:14:50;;;;;;;10.60;6.73;;;9.80;99.90;;;9.80;68.39;100619.88;5110703;28;20207;-70
2023/01/02 07:17:19;;;;;;;9.37;6.43;;;9.80;99.90;;;9.81;68.92;100610.44;5111536;28;20225;-72
2023/01/02 07:19:47;;;;;;;7.93;5.80;;;9.80;99.90;;;9.81;68.73;100600.16;5103243;28;20283;-69
2023/01/02 07:22:23;;;;;;;9.60;5.67;;;9.90;99.90;;;9.81;68.47;100595.00;5103375;28;20249;-75
2023/01/02 07:24:53;;;;;;;10.80;6.10;;;9.80;99.90;;;9.78;69.21;100587.28;5105398;28;20726;-70
2023/01/02 07:27:22;;;;;;;9.80;5.57;;;9.90;99.90;;;9.77;68.90;100594.16;5107839;28;20208;-70
2023/01/02 07:29:50;;;;;;;10.57;6.47;;;9.80;99.90;;;9.76;68.77;100589.00;5105902;27;20206;-71
2023/01/02 07:32:19;;;;;;;7.87;6.03;;;9.90;99.90;;;9.81;69.25;100597.56;5105552;28;20657;-70
2023/01/02 07:34:54;;;;;;;12.70;7.35;;;9.90;99.90;;;9.82;69.58;100595.00;5103319;28;20487;-69
2023/01/02 07:37:25;;;;;;;11.17;6.50;;;9.90;99.90;;;9.81;69.47;100592.44;5091864;28;20208;-72
2023/01/02 07:39:53;;;;;;;8.55;6.28;;;9.90;99.90;;;9.82;69.08;100592.41;5107840;28;20479;-70
2023/01/02 07:42:22;;;;;;;11.37;6.23;;;9.90;99.90;;;9.80;68.95;100586.44;5105564;28;20207;-69
2023/01/02 07:44:50;;;;;;;9.80;5.80;;;9.80;99.90;;;9.80;68.73;100583.00;5112054;28;20222;-70
2023/01/02 07:47:19;;;;;;;9.67;6.00;;;9.80;99.90;;;9.78;69.47;100582.13;5109497;28;20280;-68
2023/01/02 07:49:47;;;;;;;10.47;6.30;;;9.80;99.90;;;9.76;68.94;100578.72;5108239;28;20216;-69
2023/01/02 07:52:16;;;;;;;8.73;6.20;;;9.80;99.90;;;9.76;69.12;100571.00;5093232;28;20208;-68
2023/01/02 07:54:46;;;;;;;12.57;6.70;;;9.80;99.90;;;9.76;69.19;100571.00;5109304;28;20211;-69
2023/01/02 07:57:14;;;;;;;10.03;5.90;;;9.80;99.90;;;9.76;69.57;100571.00;5109992;28;20229;-71
2023/01/02 07:59:43;;;;;;;9.93;6.00;;;9.80;99.90;;;9.73;69.01;100566.69;5107726;28;20248;-70
2023/01/02 08:02:12;;;;;;;7.87;5.77;;;9.80;99.90;;;9.75;69.59;100569.25;5112554;28;20231;-71
2023/01/02 08:04:41;;;;;;;10.17;6.00;;;9.80;99.90;;;9.74;69.16;100563.25;5113160;28;20208;-70
2023/01/02 08:07:12;;;;;;;9.20;6.00;;;9.90;99.90;;;9.80;69.61;100567.56;5116545;28;20208;-73
2023/01/02 08:09:41;;;;;;;10.47;6.27;;;9.90;99.90;;;9.84;69.66;100566.69;5121200;28;20268;-73
2023/01/02 08:12:10;;;;;;;10.03;6.37;;;9.90;99.90;;;9.85;69.23;100561.53;5108569;28;20235;-71
2023/01/02 08:14:39;;;;;;;9.27;6.20;;;9.90;99.90;;;9.89;69.10;100583.00;5109618;28;20612;-69
2023/01/02 08:17:07;;;;;;;12.43;6.97;;;10.00;99.90;;;9.89;69.58;100572.69;5108862;28;20652;-70
2023/01/02 08:19:36;;;;;;;9.07;6.20;;;10.00;99.90;;;9.93;69.43;100574.41;5103250;28;20232;-70
2023/01/02 08:22:05;;;;;;;9.53;6.10;;;10.00;99.90;;;9.99;68.62;100579.56;5087524;28;20211;-68
2023/01/02 08:24:35;;;;;;;9.77;6.50;;;10.10;99.90;;;10.06;68.86;100573.53;5104756;28;20200;-70
2023/01/02 08:27:04;;;;;;;10.73;6.13;;;10.20;99.90;;;10.16;68.67;100579.53;5105795;28;20599;-67
2023/01/02 08:29:34;;;;;;;9.23;6.10;;;10.20;99.90;;;10.20;68.21;100572.66;5106095;28;20276;-68
2023/01/02 08:32:02;;;;;;;11.30;6.70;;;10.30;99.90;;;10.24;68.17;100579.53;5103882;28;20542;-67
2023/01/02 08:34:30;;;;;;;10.27;6.50;;;10.30;99.90;;;10.25;68.26;100576.97;5108986;28;20628;-67
2023/01/02 08:36:59;;;;;;;12.23;6.90;;;10.40;99.90;;;10.30;67.38;100574.41;5107603;28;20573;-69
2023/01/02 08:39:28;;;;;;;11.80;6.33;;;10.40;99.90;;;10.33;67.73;100580.41;5105736;28;20208;-66
2023/01/02 08:41:57;;;;;;;13.37;6.93;;;10.40;99.90;;;10.38;67.73;100588.09;5110112;28;20215;-67
2023/01/02 08:44:26;;;;;;;12.63;7.00;;;10.50;99.90;;;10.44;68.20;100585.53;5104575;28;20243;-65
2023/01/02 08:46:56;;;;;;;9.70;6.33;;;10.60;99.90;;;10.57;66.98;100574.34;5111147;28;20273;-68
2023/01/02 08:49:24;;;;;;;11.43;6.97;;;10.70;99.90;;;10.77;66.65;100565.66;5110385;28;20668;-65
2023/01/02 08:51:53;;;;;;;10.20;6.80;;;10.90;99.90;;;11.04;66.40;100565.53;5109563;28;20227;-66
2023/01/02 08:54:21;;;;;;;12.90;6.90;;;11.20;99.90;;;11.37;65.11;100550.72;5108070;28;20210;-64
2023/01/02 08:56:50;;;;;;;12.07;6.77;;;11.50;99.90;;;11.47;64.14;100547.22;5108675;28;20284;-65
2023/01/02 08:59:18;;;;;;;10.03;6.73;;;11.60;99.90;;;11.48;63.92;100550.66;5109959;28;20649;-67
2023/01/02 09:01:47;;;;;;;10.93;6.60;;;11.60;99.90;;;11.49;63.54;100531.75;5105310;28;20212;-68
2023/01/02 09:04:18;;;;;;;12.43;6.87;;;11.60;99.90;;;11.44;63.77;100552.41;5098198;28;20234;-66
2023/01/02 09:06:48;;;;;;;12.43;6.83;;;11.60;99.90;;;11.43;63.53;100530.06;5106208;28;20268;-68
2023/01/02 09:09:17;;;;;;;13.43;7.33;;;11.50;99.90;;;11.47;63.63;100536.91;5107711;28;20257;-67
2023/01/02 09:11:49;;;;;;;13.43;6.60;;;11.60;99.90;;;11.53;63.51;100538.59;5110893;28;20305;-67
2023/01/02 09:14:20;;;;;;;13.47;7.03;;;11.60;99.90;;;11.67;63.61;100535.88;5107194;28;20253;-68
2023/01/02 09:16:50;;;;;;;12.77;7.77;;;11.80;99.90;;;12.03;62.92;100530.41;5110603;28;20713;-74
2023/01/02 09:19:20;;;;;;;9.23;6.77;;;12.20;99.90;;;12.63;61.76;100527.19;5108304;28;20280;-70
2023/01/02 09:21:49;;;;;;;12.47;6.83;;;12.80;99.90;;;13.44;59.64;100536.47;5111933;28;20200;-71
2023/01/02 09:24:18;;;;;;;10.93;7.40;;;13.60;99.90;;;14.22;56.91;100534.28;5108708;28;20239;-69
2023/01/02 09:26:46;;;;;;;16.80;7.60;;;14.30;99.90;;;15.25;54.96;100525.22;5108566;28;20269;-70
2023/01/02 09:29:15;;;;;;;12.07;8.07;;;15.40;99.90;;;16.47;51.21;100523.03;5112835;28;20351;-69
2023/01/02 09:31:43;;;;;;;11.43;8.13;;;16.50;99.90;;;17.70;47.75;100518.38;5108233;28;20207;-70
2023/01/02 09:34:13;;;;;;;12.13;7.67;;;17.80;99.90;;;18.65;44.21;100514.19;5109982;28;20207;-71
2023/01/02 09:36:42;;;;;;;15.90;8.43;;;18.60;99.90;;;19.56;42.35;100504.53;5112051;28;20192;-70
2023/01/02 09:39:12;;;;;;;10.20;7.03;;;19.60;99.90;;;20.13;40.40;100502.16;5108141;28;20208;-70
2023/01/02 09:41:44;;;;;;;11.30;7.20;;;20.00;99.90;;;20.50;39.51;100499.59;5110663;28;20277;-72
2023/01/02 09:44:18;;;;;;;10.52;7.28;;;20.40;98.80;;;20.93;38.76;100507.25;5110980;28;20212;-69
2023/01/02 09:46:52;;;;;;;11.43;7.35;;;20.90;96.50;;;21.52;37.51;100498.31;5112883;28;20206;-69
2023/01/02 09:49:24;;;;;;;11.77;7.78;;;21.50;93.40;;;21.89;36.16;100505.16;5110836;28;20208;-68
2023/01/02 09:51:54;;;;;;;7.97;6.90;;;21.70;91.50;;;22.39;36.03;100500.88;5110018;28;20378;-68
2023/01/02 09:54:27;;;;;;;10.63;7.22;;;22.10;91.00;;;22.78;34.55;100495.22;5110845;28;20215;-71
2023/01/02 09:57:12;;;;;;;13.48;7.82;;;22.40;85.70;;;22.24;34.31;100494.66;5106437;28;20360;-69
2023/01/02 09:59:48;;;;;;;11.20;6.95;;;21.80;82.80;;;21.33;35.43;100494.88;5110941;28;20239;-69
2023/01/02 10:02:33;;;;;;;12.20;7.65;;;21.00;83.40;;;20.50;37.30;100496.16;5110020;28;20264;-69
2023/01/02 10:05:42;;;;;;;8.98;7.20;;;20.30;87.10;;;19.85;38.39;100482.44;5106996;28;20283;-68
2023/01/02 10:08:24;;;;;;;13.98;7.72;;;19.80;87.60;;;19.07;39.70;100472.53;5076537;28;20251;-68
2023/01/02 10:11:16;;;;;;;11.27;7.10;;;18.90;89.20;;;18.32;41.31;100480.59;5111978;28;20214;-70
2023/01/02 10:13:54;;;;;;;11.07;7.40;;;18.20;90.90;;;17.70;42.62;100473.22;5109453;28;20248;-67
2023/01/02 10:16:48;;;;;;;15.65;7.78;;;17.50;91.80;;;17.05;44.28;100482.28;5106743;28;20212;-67
2023/01/02 10:19:23;;;;;;;12.68;8.50;;;16.80;93.30;;;16.52;45.84;100482.09;5113035;28;20258;-70
2023/01/02 10:21:57;;;;;;;12.82;7.10;;;16.30;94.60;;;16.11;46.97;100478.94;5109390;28;20264;-67
2023/01/02 10:24:40;;;;;;;11.48;7.68;;;15.90;96.00;;;15.82;47.90;100472.75;5110569;28;20234;-70
2023/01/02 10:27:17;;;;;;;13.40;7.43;;;15.70;97.30;;;15.64;48.30;100475.78;5111671;28;20796;-69
2023/01/02 10:29:54;;;;;;;10.13;7.40;;;15.40;98.40;;;15.39;49.24;100480.75;5110707;28;20227;-67
2023/01/02 10:32:26;;;;;;;15.80;8.47;;;15.20;99.40;;;15.12;49.86;100480.50;5107100;28;20200;-66